createdAt,value
2022-10-28T00:01:22.135Z,11.10
2022-10-28T00:03:52.088Z,11.00
2022-10-28T00:06:25.313Z,11.00
2022-10-28T00:08:52.959Z,11.00
2022-10-28T00:11:22.935Z,10.90
2022-10-28T00:13:52.671Z,10.90
2022-10-28T00:16:26.051Z,10.90
2022-10-28T00:18:54.398Z,10.80
2022-10-28T00:21:25.273Z,10.80
2022-10-28T00:23:52.953Z,10.70
2022-10-28T00:26:31.635Z,10.60
2022-10-28T00:29:04.627Z,10.50
2022-10-28T00:31:32.674Z,10.50
2022-10-28T00:34:02.081Z,10.40
2022-10-28T00:36:32.234Z,10.40
2022-10-28T00:39:00.336Z,10.20
2022-10-28T00:41:33.212Z,10.20
2022-10-28T00:44:38.228Z,10.20
2022-10-28T00:47:21.022Z,10.20
2022-10-28T00:49:49.900Z,10.30
2022-10-28T00:52:22.317Z,10.20
2022-10-28T00:54:50.943Z,10.20
2022-10-28T00:57:25.881Z,10.20
2022-10-28T00:59:54.248Z,10.20
2022-10-28T01:02:21.852Z,10.20
2022-10-28T01:04:49.714Z,10.20
2022-10-28T01:07:17.794Z,10.10
2022-10-28T01:09:45.439Z,10.10
2022-10-28T01:12:50.357Z,10.20
2022-10-28T01:15:44.877Z,10.20
2022-10-28T01:18:30.804Z,10.20
2022-10-28T01:21:20.596Z,10.30
2022-10-28T01:24:32.951Z,10.20
2022-10-28T01:27:39.986Z,10.20
2022-10-28T01:30:22.105Z,10.30
2022-10-28T01:33:25.223Z,10.30
2022-10-28T01:36:20.666Z,10.20
2022-10-28T01:39:06.398Z,10.30
2022-10-28T01:42:02.267Z,10.30
2022-10-28T01:44:33.214Z,10.40
2022-10-28T01:47:22.936Z,10.40
2022-10-28T01:50:00.548Z,10.40
2022-10-28T01:52:30.407Z,10.40
2022-10-28T01:55:15.485Z,10.50
2022-10-28T01:57:43.837Z,10.40
2022-10-28T02:00:11.622Z,10.50
2022-10-28T02:02:39.967Z,10.50
2022-10-28T02:05:42.091Z,10.50
2022-10-28T02:08:18.409Z,10.50
2022-10-28T02:11:00.717Z,10.50
2022-10-28T02:14:06.086Z,10.50
2022-10-28T02:17:10.961Z,10.50
2022-10-28T02:19:53.495Z,10.50
2022-10-28T02:22:41.095Z,10.50
2022-10-28T02:25:20.865Z,10.50
2022-10-28T02:28:00.393Z,10.50
2022-10-28T02:30:41.478Z,10.50
2022-10-28T02:33:14.872Z,10.50
2022-10-28T02:35:48.973Z,10.60
2022-10-28T02:38:21.125Z,10.60
2022-10-28T02:40:53.947Z,10.60
2022-10-28T02:43:23.881Z,10.50
2022-10-28T02:45:55.987Z,10.60
2022-10-28T02:48:28.618Z,10.50
2022-10-28T02:51:07.682Z,10.50
2022-10-28T02:53:59.730Z,10.50
2022-10-28T02:56:30.319Z,10.50
2022-10-28T02:58:57.589Z,10.50
2022-10-28T03:01:25.055Z,10.50
2022-10-28T03:03:52.626Z,10.50
2022-10-28T03:06:19.824Z,10.50
2022-10-28T03:08:47.064Z,10.60
2022-10-28T03:11:14.539Z,10.60
2022-10-28T03:13:41.639Z,10.60
2022-10-28T03:16:08.906Z,10.60
2022-10-28T03:18:36.012Z,10.70
2022-10-28T03:21:03.294Z,10.80
2022-10-28T03:23:30.473Z,10.80
2022-10-28T03:25:57.616Z,10.70
2022-10-28T03:28:24.812Z,10.70
2022-10-28T03:30:52.030Z,10.70
2022-10-28T03:33:19.165Z,10.90
2022-10-28T03:35:46.373Z,10.80
2022-10-28T03:38:13.584Z,10.80
2022-10-28T03:40:40.800Z,10.80
2022-10-28T03:43:08.042Z,10.80
2022-10-28T03:45:35.328Z,10.80
2022-10-28T03:48:02.465Z,10.80
2022-10-28T03:50:29.871Z,10.90
2022-10-28T03:52:57.081Z,10.90
2022-10-28T03:55:25.808Z,10.90
2022-10-28T03:57:53.462Z,11.00
2022-10-28T04:00:21.259Z,10.90
2022-10-28T04:02:52.552Z,10.90
2022-10-28T04:05:20.926Z,10.90
2022-10-28T04:07:48.411Z,10.90
2022-10-28T04:10:15.889Z,11.00
2022-10-28T04:12:43.212Z,11.00
2022-10-28T04:15:10.494Z,10.90
2022-10-28T04:17:37.648Z,11.00
2022-10-28T04:20:05.276Z,11.00
2022-10-28T04:22:32.620Z,11.00
2022-10-28T04:24:59.811Z,11.00
2022-10-28T04:27:27.057Z,11.10
2022-10-28T04:29:54.211Z,11.00
2022-10-28T04:32:21.485Z,11.10
2022-10-28T04:34:48.694Z,11.20
2022-10-28T04:37:20.395Z,11.10
2022-10-28T04:39:48.435Z,11.10
2022-10-28T04:42:16.843Z,11.10
2022-10-28T04:44:43.983Z,11.20
2022-10-28T04:47:11.189Z,11.10
2022-10-28T04:49:38.908Z,11.20
2022-10-28T04:52:06.713Z,11.20
2022-10-28T04:54:33.878Z,11.20
2022-10-28T04:57:01.302Z,11.30
2022-10-28T04:59:28.523Z,11.30
2022-10-28T05:01:55.811Z,11.30
2022-10-28T05:04:23.157Z,11.30
2022-10-28T05:06:50.558Z,11.20
2022-10-28T05:09:17.861Z,11.20
2022-10-28T05:11:45.322Z,11.20
2022-10-28T05:14:12.475Z,11.10
2022-10-28T05:16:39.674Z,11.20
2022-10-28T05:19:06.893Z,11.20
2022-10-28T05:21:34.143Z,11.20
2022-10-28T05:24:01.719Z,11.20
2022-10-28T05:26:28.972Z,11.20
2022-10-28T05:28:56.160Z,11.20
2022-10-28T05:31:23.415Z,11.20
2022-10-28T05:33:50.938Z,11.30
2022-10-28T05:36:18.210Z,11.30
2022-10-28T05:38:45.758Z,11.30
2022-10-28T05:41:12.975Z,11.30
2022-10-28T05:43:40.182Z,11.30
2022-10-28T05:46:07.280Z,11.40
2022-10-28T05:48:34.546Z,11.40
2022-10-28T05:51:01.705Z,11.40
2022-10-28T05:53:28.990Z,11.40
2022-10-28T05:55:56.346Z,11.40
2022-10-28T05:58:23.788Z,11.40
2022-10-28T06:00:51.034Z,11.40
2022-10-28T06:03:18.474Z,11.40
2022-10-28T06:05:46.358Z,11.30
2022-10-28T06:08:13.873Z,11.30
2022-10-28T06:10:41.859Z,11.30
2022-10-28T06:13:08.228Z,11.40
2022-10-28T06:15:35.364Z,11.50
2022-10-28T06:18:02.639Z,11.40
2022-10-28T06:20:29.814Z,11.40
2022-10-28T06:22:57.066Z,11.30
2022-10-28T06:25:25.663Z,11.30
2022-10-28T06:27:57.264Z,11.40
2022-10-28T06:30:25.977Z,11.40
2022-10-28T06:32:56.768Z,11.40
2022-10-28T06:35:24.196Z,11.40
2022-10-28T06:37:56.009Z,11.50
2022-10-28T06:40:24.531Z,11.50
2022-10-28T06:43:05.613Z,11.60
2022-10-28T06:45:33.872Z,11.60
2022-10-28T06:48:05.442Z,11.70
2022-10-28T06:50:34.559Z,11.80
2022-10-28T06:53:02.428Z,11.80
2022-10-28T06:55:29.763Z,11.70
2022-10-28T06:58:01.657Z,11.70
2022-10-28T07:02:58.880Z,11.80
2022-10-28T07:05:27.961Z,11.80
2022-10-28T07:07:55.859Z,11.80
2022-10-28T07:10:23.259Z,11.80
2022-10-28T07:12:52.412Z,11.80
2022-10-28T07:15:19.826Z,11.80
2022-10-28T07:17:55.792Z,11.80
2022-10-28T07:20:24.749Z,11.80
2022-10-28T07:23:00.006Z,11.80
2022-10-28T07:25:29.291Z,11.70
2022-10-28T07:28:00.182Z,11.70
2022-10-28T07:30:28.533Z,11.80
2022-10-28T07:32:57.141Z,11.80
2022-10-28T07:35:24.985Z,11.70
2022-10-28T07:37:52.131Z,11.70
2022-10-28T07:40:21.020Z,11.60
2022-10-28T07:42:48.708Z,11.60
2022-10-28T07:45:16.241Z,11.60
2022-10-28T07:47:44.730Z,11.60
2022-10-28T07:50:12.580Z,11.60
2022-10-28T07:52:39.946Z,11.70
2022-10-28T07:55:08.820Z,11.70
2022-10-28T07:57:36.170Z,11.90
2022-10-28T08:00:05.714Z,11.90
2022-10-28T08:02:32.994Z,11.90
2022-10-28T08:05:02.151Z,12.00
2022-10-28T08:07:29.350Z,12.10
2022-10-28T08:09:57.008Z,12.20
2022-10-28T08:12:24.941Z,12.30
2022-10-28T08:14:52.313Z,12.20
2022-10-28T08:17:19.501Z,12.30
2022-10-28T08:19:46.714Z,12.30
2022-10-28T08:22:13.927Z,12.20
2022-10-28T08:24:41.098Z,12.10
2022-10-28T08:27:08.356Z,12.20
2022-10-28T08:29:35.495Z,12.10
2022-10-28T08:32:02.968Z,12.10
2022-10-28T08:34:31.448Z,12.10
2022-10-28T08:36:58.829Z,12.20
2022-10-28T08:39:26.075Z,12.20
2022-10-28T08:42:32.401Z,12.30
2022-10-28T08:45:25.373Z,12.40
2022-10-28T08:48:27.574Z,12.50
2022-10-28T08:51:10.623Z,12.50
2022-10-28T08:53:46.531Z,12.50
2022-10-28T08:56:37.637Z,12.60
2022-10-28T08:59:07.619Z,12.60
2022-10-28T09:01:46.602Z,12.50
2022-10-28T09:04:26.127Z,12.50
2022-10-28T09:06:53.988Z,12.60
2022-10-28T09:09:22.951Z,12.50
2022-10-28T09:12:05.275Z,12.60
2022-10-28T09:14:54.625Z,12.60
2022-10-28T09:17:35.299Z,12.70
2022-10-28T09:20:29.989Z,12.60
2022-10-28T09:22:59.766Z,12.60
2022-10-28T09:25:39.249Z,12.60
2022-10-28T09:28:44.053Z,12.50
2022-10-28T09:31:30.847Z,12.70
2022-10-28T09:34:13.076Z,12.80
2022-10-28T09:36:45.671Z,13.00
2022-10-28T09:39:25.301Z,13.30
2022-10-28T09:41:57.660Z,13.50
2022-10-28T09:44:39.331Z,13.50
2022-10-28T09:47:34.632Z,13.50
2022-10-28T09:50:07.633Z,13.40
2022-10-28T09:52:43.145Z,13.40
2022-10-28T09:55:22.009Z,13.30
2022-10-28T09:57:49.516Z,13.40
2022-10-28T10:00:17.890Z,13.60
2022-10-28T10:02:45.704Z,13.40
2022-10-28T10:05:17.332Z,13.50
2022-10-28T10:07:49.619Z,13.70
2022-10-28T10:10:27.127Z,13.70
2022-10-28T10:12:59.441Z,13.70
2022-10-28T10:15:38.443Z,13.60
2022-10-28T10:18:11.528Z,13.70
2022-10-28T10:20:58.678Z,13.80
2022-10-28T10:23:37.676Z,13.80
2022-10-28T10:26:13.681Z,13.50
2022-10-28T10:28:48.325Z,13.60
2022-10-28T10:31:27.208Z,13.60
2022-10-28T10:33:56.475Z,13.50
2022-10-28T10:36:28.842Z,13.50
2022-10-28T10:39:01.694Z,13.60
2022-10-28T10:41:42.096Z,13.60
2022-10-28T10:44:21.223Z,13.80
2022-10-28T10:47:08.315Z,13.60
2022-10-28T10:49:36.422Z,13.70
2022-10-28T10:52:23.784Z,13.80
2022-10-28T10:55:21.269Z,13.90
2022-10-28T10:57:49.370Z,13.80
2022-10-28T11:00:20.945Z,14.00
2022-10-28T11:02:52.157Z,13.90
2022-10-28T11:05:27.198Z,14.00
2022-10-28T11:08:05.131Z,14.10
2022-10-28T11:10:34.828Z,14.10
2022-10-28T11:13:24.047Z,14.10
2022-10-28T11:16:07.661Z,14.20
2022-10-28T11:18:43.847Z,14.40
2022-10-28T11:21:43.213Z,14.40
2022-10-28T11:24:36.285Z,14.50
2022-10-28T11:27:15.655Z,14.30
2022-10-28T11:29:43.061Z,14.20
2022-10-28T11:33:01.391Z,14.20
2022-10-28T11:35:47.716Z,14.30
2022-10-28T11:38:44.717Z,14.30
2022-10-28T11:41:31.974Z,14.40
2022-10-28T11:44:05.018Z,14.50
2022-10-28T11:46:35.676Z,14.40
2022-10-28T11:49:20.608Z,14.60
2022-10-28T11:51:53.570Z,14.50
2022-10-28T11:54:29.628Z,14.60
2022-10-28T11:57:13.448Z,14.60
2022-10-28T12:00:14.183Z,14.60
2022-10-28T12:03:19.135Z,14.70
2022-10-28T12:06:01.662Z,14.60
2022-10-28T12:08:41.313Z,14.30
2022-10-28T12:11:25.662Z,14.40
2022-10-28T12:14:16.008Z,14.30
2022-10-28T12:16:58.672Z,14.30
2022-10-28T12:19:41.999Z,14.20
2022-10-28T12:22:23.268Z,14.20
2022-10-28T12:24:53.124Z,14.00
2022-10-28T12:27:27.933Z,14.00
2022-10-28T12:30:09.298Z,13.90
2022-10-28T12:32:38.407Z,13.90
2022-10-28T12:35:17.806Z,14.10
2022-10-28T12:38:16.935Z,14.10
2022-10-28T12:41:01.816Z,14.10
2022-10-28T12:44:06.111Z,14.10
2022-10-28T12:49:42.020Z,14.10
2022-10-28T12:52:30.362Z,14.00
2022-10-28T12:55:03.643Z,14.10
2022-10-28T12:57:34.266Z,14.20
2022-10-28T13:00:26.795Z,14.00
2022-10-28T13:03:07.777Z,13.90
2022-10-28T13:05:59.751Z,13.80
2022-10-28T13:09:01.981Z,13.70
2022-10-28T13:11:51.086Z,13.70
2022-10-28T13:14:27.336Z,13.80
2022-10-28T13:16:54.516Z,13.80
2022-10-28T13:19:31.810Z,13.70
2022-10-28T13:22:32.967Z,13.70
2022-10-28T13:25:18.873Z,13.70
2022-10-28T13:27:46.716Z,13.60
2022-10-28T13:30:18.695Z,13.60
2022-10-28T13:32:45.953Z,13.60
2022-10-28T13:35:26.687Z,13.60
2022-10-28T13:37:56.216Z,13.60
2022-10-28T13:40:43.771Z,13.50
2022-10-28T13:43:20.355Z,13.50
2022-10-28T13:45:48.541Z,13.50
2022-10-28T13:48:30.816Z,13.50
2022-10-28T13:51:10.124Z,13.60
2022-10-28T13:53:46.584Z,13.60
2022-10-28T13:56:45.942Z,13.40
2022-10-28T13:59:13.215Z,13.50
2022-10-28T14:02:01.883Z,13.50
2022-10-28T14:04:39.772Z,13.50
2022-10-28T14:07:21.744Z,13.40
2022-10-28T14:09:54.400Z,13.30
2022-10-28T14:12:24.483Z,13.40
2022-10-28T14:15:03.344Z,13.30
2022-10-28T14:17:37.805Z,13.30
2022-10-28T14:20:28.096Z,13.30
2022-10-28T14:22:56.409Z,13.30
2022-10-28T14:25:44.689Z,13.20
2022-10-28T14:28:30.265Z,13.30
2022-10-28T14:31:12.347Z,13.20
2022-10-28T14:33:44.638Z,13.20
2022-10-28T14:36:17.908Z,13.20
2022-10-28T14:38:53.897Z,13.30
2022-10-28T14:41:38.623Z,13.20
2022-10-28T14:44:17.958Z,13.30
2022-10-28T14:46:53.986Z,13.30
2022-10-28T14:49:26.014Z,13.30
2022-10-28T14:51:54.262Z,13.30
2022-10-28T14:54:40.631Z,13.20
2022-10-28T14:57:08.555Z,13.20
2022-10-28T14:59:44.454Z,13.10
2022-10-28T15:02:19.053Z,13.20
2022-10-28T15:04:56.675Z,13.20
2022-10-28T15:07:24.129Z,13.30
2022-10-28T15:09:53.753Z,13.20
2022-10-28T15:12:23.470Z,13.10
2022-10-28T15:14:52.818Z,13.00
2022-10-28T15:17:24.405Z,13.00
2022-10-28T15:19:57.308Z,13.10
2022-10-28T15:22:30.940Z,13.10
2022-10-28T15:25:00.853Z,13.00
2022-10-28T15:27:31.126Z,13.00
2022-10-28T15:29:58.588Z,12.90
2022-10-28T15:32:31.823Z,12.90
2022-10-28T15:34:59.717Z,12.90
2022-10-28T15:37:35.014Z,12.80
2022-10-28T15:40:21.022Z,12.80
2022-10-28T15:42:59.144Z,12.90
2022-10-28T15:45:32.016Z,12.90
2022-10-28T15:48:01.103Z,12.90
2022-10-28T15:50:34.160Z,12.80
2022-10-28T15:53:38.378Z,12.90
2022-10-28T15:56:14.560Z,12.90
2022-10-28T15:59:00.417Z,12.80
2022-10-28T16:01:39.782Z,12.80
2022-10-28T16:04:22.968Z,12.70
2022-10-28T16:06:53.365Z,12.70
2022-10-28T16:09:29.521Z,12.70
2022-10-28T16:12:02.004Z,12.70
2022-10-28T16:14:34.637Z,12.70
2022-10-28T16:17:23.982Z,12.80
2022-10-28T16:20:19.299Z,12.80
2022-10-28T16:22:47.585Z,12.70
2022-10-28T16:25:20.766Z,12.60
2022-10-28T16:27:48.794Z,12.60
2022-10-28T16:30:16.388Z,12.60
2022-10-28T16:32:50.966Z,12.60
2022-10-28T16:35:21.352Z,12.60
2022-10-28T16:37:53.767Z,12.60
2022-10-28T16:40:50.833Z,12.60
2022-10-28T16:43:29.793Z,12.60
2022-10-28T16:45:59.595Z,12.50
2022-10-28T16:48:29.491Z,12.50
2022-10-28T16:51:01.682Z,12.50
2022-10-28T16:53:29.218Z,12.50
2022-10-28T16:55:59.290Z,12.60
2022-10-28T16:58:28.205Z,12.50
2022-10-28T17:00:56.295Z,12.60
2022-10-28T17:03:23.624Z,12.50
2022-10-28T17:05:50.927Z,12.50
2022-10-28T17:08:36.042Z,12.50
2022-10-28T17:11:05.707Z,12.50
2022-10-28T17:13:34.608Z,12.40
2022-10-28T17:16:01.853Z,12.40
2022-10-28T17:18:29.147Z,12.30
2022-10-28T17:21:01.336Z,12.20
2022-10-28T17:23:29.875Z,12.10
2022-10-28T17:26:01.817Z,12.00
2022-10-28T17:28:29.878Z,12.00
2022-10-28T17:31:08.270Z,11.90
2022-10-28T17:33:35.745Z,11.80
2022-10-28T17:36:10.616Z,11.80
2022-10-28T17:38:38.070Z,11.70
2022-10-28T17:41:05.958Z,11.60
2022-10-28T17:43:33.361Z,11.60
2022-10-28T17:46:07.423Z,11.50
2022-10-28T17:48:35.053Z,11.50
2022-10-28T17:51:02.382Z,11.50
2022-10-28T17:53:29.900Z,11.60
2022-10-28T17:56:01.865Z,11.50
2022-10-28T17:58:29.607Z,11.60
2022-10-28T18:01:01.796Z,11.60
2022-10-28T18:03:32.847Z,11.70
2022-10-28T18:06:04.370Z,11.70
2022-10-28T18:08:39.750Z,11.80
2022-10-28T18:11:08.972Z,11.90
2022-10-28T18:13:38.399Z,11.90
2022-10-28T18:16:11.492Z,11.90
2022-10-28T18:18:42.456Z,11.90
2022-10-28T18:21:11.776Z,11.90
2022-10-28T18:23:41.163Z,11.90
2022-10-28T18:26:15.685Z,11.90
2022-10-28T18:28:44.593Z,12.00
2022-10-28T18:31:19.684Z,11.90
2022-10-28T18:33:47.312Z,11.90
2022-10-28T18:36:20.995Z,11.90
2022-10-28T18:38:49.215Z,11.80
2022-10-28T18:41:25.043Z,11.80
2022-10-28T18:44:03.045Z,11.70
2022-10-28T18:46:33.748Z,11.70
2022-10-28T18:51:34.876Z,11.80
2022-10-28T18:54:02.912Z,11.80
2022-10-28T18:56:31.024Z,11.80
2022-10-28T18:58:59.013Z,11.80
2022-10-28T19:01:28.619Z,11.80
2022-10-28T19:04:00.952Z,11.90
2022-10-28T19:06:32.666Z,11.90
2022-10-28T19:09:03.637Z,11.90
2022-10-28T19:11:32.074Z,11.90
2022-10-28T19:14:00.985Z,12.00
2022-10-28T19:16:29.056Z,12.00
2022-10-28T19:19:00.663Z,12.00
2022-10-28T19:21:28.621Z,12.00
2022-10-28T19:23:56.503Z,12.00
2022-10-28T19:26:24.865Z,12.00
2022-10-28T19:28:52.538Z,12.00
2022-10-28T19:31:22.375Z,12.10
2022-10-28T19:33:49.754Z,12.10
2022-10-28T19:36:19.912Z,12.10
2022-10-28T19:38:49.254Z,12.20
2022-10-28T19:41:19.173Z,12.30
2022-10-28T19:43:47.432Z,12.30
2022-10-28T19:46:15.880Z,12.30
2022-10-28T19:48:46.361Z,12.40
2022-10-28T19:51:15.746Z,12.30
2022-10-28T19:53:50.894Z,12.40
2022-10-28T19:56:19.861Z,12.30
2022-10-28T19:58:51.534Z,12.30
2022-10-28T20:01:20.678Z,12.40
2022-10-28T20:03:50.558Z,12.40
2022-10-28T20:06:20.441Z,12.40
2022-10-28T20:08:49.460Z,12.30
2022-10-28T20:11:21.368Z,12.40
2022-10-28T20:13:57.012Z,12.40
2022-10-28T20:16:25.405Z,12.30
2022-10-28T20:18:55.085Z,12.40
2022-10-28T20:21:23.663Z,12.40
2022-10-28T20:23:55.546Z,12.40
2022-10-28T20:26:25.965Z,12.50
2022-10-28T20:28:53.615Z,12.40
2022-10-28T20:31:23.147Z,12.40
2022-10-28T20:33:52.887Z,12.30
2022-10-28T20:36:41.345Z,12.40
2022-10-28T20:39:17.222Z,12.40
2022-10-28T20:41:46.514Z,12.40
2022-10-28T20:44:13.930Z,12.40
2022-10-28T20:46:41.711Z,12.40
2022-10-28T20:49:09.046Z,12.40
2022-10-28T20:51:36.982Z,12.40
2022-10-28T20:54:04.397Z,12.40
2022-10-28T20:56:34.970Z,12.50
2022-10-28T20:59:02.555Z,12.50
2022-10-28T21:01:40.817Z,12.50
2022-10-28T21:04:10.834Z,12.40
2022-10-28T21:06:38.763Z,12.50
2022-10-28T21:09:06.804Z,12.50
2022-10-28T21:11:34.092Z,12.50
2022-10-28T21:14:02.117Z,12.40
2022-10-28T21:16:30.042Z,12.40
2022-10-28T21:18:59.223Z,12.40
2022-10-28T21:21:26.794Z,12.40
2022-10-28T21:23:54.671Z,12.40
2022-10-28T21:26:22.308Z,12.40
2022-10-28T21:28:52.157Z,12.50
2022-10-28T21:31:21.415Z,12.50
2022-10-28T21:36:23.066Z,12.40
2022-10-28T21:38:55.338Z,12.40
2022-10-28T21:41:24.074Z,12.40
2022-10-28T21:43:52.642Z,12.50
2022-10-28T21:46:21.314Z,12.50
2022-10-28T21:48:48.772Z,12.50
2022-10-28T21:51:17.314Z,12.40
2022-10-28T21:53:45.696Z,12.40
2022-10-28T21:56:19.426Z,12.40
2022-10-28T21:58:49.044Z,12.40
2022-10-28T22:01:22.171Z,12.40
2022-10-28T22:03:54.699Z,12.40
2022-10-28T22:06:22.679Z,12.40
2022-10-28T22:08:52.209Z,12.50
2022-10-28T22:11:21.836Z,12.50
2022-10-28T22:13:56.409Z,12.50
2022-10-28T22:16:23.816Z,12.50
2022-10-28T22:18:51.050Z,12.50
2022-10-28T22:21:21.377Z,12.40
2022-10-28T22:23:49.459Z,12.50
2022-10-28T22:26:22.488Z,12.40
2022-10-28T22:28:50.786Z,12.50
2022-10-28T22:31:20.761Z,12.60
2022-10-28T22:33:48.817Z,12.50
2022-10-28T22:36:18.491Z,12.50
2022-10-28T22:38:46.314Z,12.50
2022-10-28T22:41:23.983Z,12.50
2022-10-28T22:43:53.681Z,12.50
2022-10-28T22:46:22.703Z,12.50
2022-10-28T22:48:49.987Z,12.50
2022-10-28T22:51:18.234Z,12.50
2022-10-28T22:53:45.610Z,12.50
2022-10-28T22:56:21.681Z,12.50
2022-10-28T22:58:52.786Z,12.50
2022-10-28T23:01:20.944Z,12.40
2022-10-28T23:03:50.444Z,12.50
2022-10-28T23:06:19.216Z,12.50
2022-10-28T23:08:46.826Z,12.40
2022-10-28T23:11:16.144Z,12.40
2022-10-28T23:13:43.821Z,12.50
2022-10-28T23:16:13.670Z,12.40
2022-10-28T23:18:41.576Z,12.40
2022-10-28T23:21:17.755Z,12.50
2022-10-28T23:23:51.336Z,12.50
2022-10-28T23:26:21.692Z,12.40
2022-10-28T23:28:54.052Z,12.40
2022-10-28T23:31:22.321Z,12.50
2022-10-28T23:33:50.336Z,12.40
2022-10-28T23:36:17.685Z,12.40
2022-10-28T23:38:44.967Z,12.40
2022-10-28T23:41:16.321Z,12.40
2022-10-28T23:43:43.741Z,12.40
2022-10-28T23:46:11.314Z,12.40
2022-10-28T23:48:38.644Z,12.40
2022-10-28T23:51:06.512Z,12.50
2022-10-28T23:53:34.603Z,12.50
2022-10-28T23:56:01.939Z,12.40
2022-10-28T23:58:29.124Z,12.40
